Airfield :
LOGIN :

Register | Disclaimer

   EN    FR    IT 

 










Legend :    VFR   Marginal VFR   IFR   Intensive IFR   Very Intensive IFR
Visi :
Ceiling :
>= 8 km
>= 3000ft
5 to 8 km
1000 to 3000 ft
1500m to 5 km
500 to 1000 ft
800 to 1500m
200 to 500 ft
< 800m
< 200 ft
Symbols :   Thunderstorms  Fog  Heavy snow  Heavy precipitations  Wind > 20 kt
SIGMETs :     Misc.  Thunderstorms  Icing  Turbulence  Mountain Waves  Volcanic Ashes






- Airport Elevation : 55 ft
- IATA code : DSA


EGCN - Robin Hood Doncaster Sheffield

CURRENT METAR :
  • 091050Z 31018G30KT CAVOK 07/00 Q1011

EXPIRED METARs :
  • 091020Z 31018KT CAVOK 07/00 Q1010
  • 090950Z 31017KT CAVOK 07/00 Q1008
  • 090920Z 31017KT CAVOK 06/00 Q1007
  • 090850Z 31021KT CAVOK 06/00 Q1006
  • 090820Z 31019G30KT CAVOK 07/01 Q1004
  • 090750Z 31019KT CAVOK 06/01 Q1003

TAF TAF EGCN
Valid from the 09 at 06:00 until the 10 at 06:00 UTC


090456Z 0906/1006 30015G25KT 9999 SCT025
TEMPO 0906/0912 30018G35KT
BECMG 0912/0915 31010KT
BECMG 0915/0918 24005KT
BECMG 1000/1003 18010KT
TEMPO 1004/1006 19015G25KT



MET'MAP, your aeronautical weather chart ! - Copyright ORBIFLY December 2007 - Disclaimer

ORBIFLY MET'MAP TEAM :

Programming & Development : Alexandra Zaïnal
Concept & original design : Baudouin d'Aumeries
Assistance for programming : Marc-Olivier Méhu
Technical & hardware support : Manuel Goepfert

Contact : metmap@orbifly.com




SOURCES & CREDITS :

   NOAA